Time;durP1;ratioP1;P1;durP2;ratioP2;P2;SDS_P1;SDS_P2;PMS_P1;PMS_P2;Temp;Humidity;BMP_temperature;BMP_pressure;BME280_temperature;BME280_humidity;BME280_pressure;Samples;Min_cycle;Max_cycle;Signal;HPM_P1;HPM_P2
2023/05/17 00:00:45;;;;;;;2.97;1.50;;;4.50;99.90;;;;;;2059086;28;20399;-68
2023/05/17 00:01:45;;;;;;;4.37;1.70;;;4.50;99.90;;;;;;2059016;28;20186;-68
2023/05/17 00:02:46;;;;;;;3.77;1.70;;;4.50;99.90;;;;;;2050746;28;20206;-68
2023/05/17 00:03:47;;;;;;;5.30;1.77;;;4.60;99.90;;;;;;2056112;28;20194;-68
2023/05/17 00:04:47;;;;;;;4.50;1.47;;;4.50;99.90;;;;;;2048875;28;20584;-67
2023/05/17 00:05:48;;;;;;;4.40;1.37;;;4.50;99.90;;;;;;2050943;28;20185;-68
2023/05/17 00:06:49;;;;;;;2.70;1.43;;;4.20;99.90;;;;;;2068353;28;20186;-68
2023/05/17 00:07:50;;;;;;;1.30;1.10;;;4.60;99.90;;;;;;2052467;28;20205;-68
2023/05/17 00:08:51;;;;;;;4.40;1.57;;;4.60;99.90;;;;;;2052790;28;20221;-68
2023/05/17 00:09:52;;;;;;;2.30;1.73;;;4.60;99.90;;;;;;2057839;28;20869;-68
2023/05/17 00:10:52;;;;;;;3.97;1.80;;;4.60;99.90;;;;;;2059459;28;20187;-68
2023/05/17 00:11:54;;;;;;;6.70;1.45;;;4.60;99.90;;;;;;2044445;28;20203;-68
2023/05/17 00:12:54;;;;;;;5.17;1.50;;;4.60;99.90;;;;;;2057502;28;20211;-68
2023/05/17 00:13:55;;;;;;;3.90;1.60;;;4.60;99.90;;;;;;2059774;28;20227;-68
2023/05/17 00:14:56;;;;;;;2.20;1.23;;;4.60;99.90;;;;;;2059724;28;20229;-68
2023/05/17 00:15:57;;;;;;;1.83;1.13;;;4.60;99.90;;;;;;2056851;28;20596;-68
2023/05/17 00:16:58;;;;;;;6.13;1.70;;;4.60;99.90;;;;;;2055514;28;20197;-68
2023/05/17 00:18:00;;;;;;;2.53;1.50;;;4.60;99.90;;;;;;2050702;28;20187;-68
2023/05/17 00:19:00;;;;;;;4.82;1.98;;;4.50;99.90;;;;;;2042459;28;20186;-68
2023/05/17 00:20:01;;;;;;;2.90;1.67;;;4.50;99.90;;;;;;2036747;28;20188;-68
2023/05/17 00:21:02;;;;;;;2.75;1.35;;;4.40;99.90;;;;;;2048393;28;20614;-68
2023/05/17 00:22:03;;;;;;;3.97;1.47;;;4.50;99.90;;;;;;2064466;28;20224;-68
2023/05/17 00:23:04;;;;;;;2.03;1.40;;;4.50;99.90;;;;;;2059229;28;20729;-68
2023/05/17 00:24:05;;;;;;;2.60;1.43;;;4.50;99.90;;;;;;2050970;28;20302;-68
2023/05/17 00:25:07;;;;;;;4.78;1.48;;;4.60;99.90;;;;;;2051634;28;20231;-68
2023/05/17 00:26:08;;;;;;;3.35;1.50;;;4.60;99.90;;;;;;2059898;28;20241;-68
2023/05/17 00:27:09;;;;;;;3.23;1.30;;;4.60;99.90;;;;;;2058638;28;20368;-68
2023/05/17 00:28:11;;;;;;;3.35;1.40;;;4.60;99.90;;;;;;2060868;28;20234;-68
2023/05/17 00:29:11;;;;;;;5.03;1.83;;;4.50;99.90;;;;;;2054516;28;20590;-68
2023/05/17 00:30:14;;;;;;;6.10;1.57;;;4.50;99.90;;;;;;2055649;28;20241;-68
2023/05/17 00:31:14;;;;;;;3.60;1.60;;;4.50;99.90;;;;;;2059887;28;20237;-67
2023/05/17 00:32:15;;;;;;;2.07;1.43;;;4.40;99.90;;;;;;2063035;28;20229;-68
2023/05/17 00:33:16;;;;;;;2.70;1.40;;;4.40;99.90;;;;;;2064818;28;20229;-68
2023/05/17 00:34:17;;;;;;;7.07;3.17;;;4.40;99.90;;;;;;2064470;28;20415;-68
2023/05/17 00:35:17;;;;;;;2.90;1.70;;;4.50;99.90;;;;;;2061646;28;20699;-68
2023/05/17 00:36:18;;;;;;;1.87;1.57;;;4.40;99.90;;;;;;2063149;28;20242;-68
2023/05/17 00:37:19;;;;;;;7.90;1.83;;;4.40;99.90;;;;;;2060042;28;20234;-68
2023/05/17 00:38:20;;;;;;;4.45;1.83;;;4.40;99.90;;;;;;2061816;28;20317;-68
2023/05/17 00:39:20;;;;;;;2.07;1.57;;;4.30;99.90;;;;;;2053962;28;20593;-68
2023/05/17 00:40:21;;;;;;;2.97;1.50;;;4.30;99.90;;;;;;2059616;28;20237;-68
2023/05/17 00:41:22;;;;;;;5.57;1.43;;;4.30;99.90;;;;;;2065956;28;20364;-68
2023/05/17 00:42:24;;;;;;;2.17;1.40;;;4.30;99.90;;;;;;2065295;28;20349;-68
2023/05/17 00:43:26;;;;;;;3.28;1.75;;;4.30;99.90;;;;;;2057549;28;20243;-68
2023/05/17 00:44:27;;;;;;;2.38;1.48;;;4.30;99.90;;;;;;2056112;28;20310;-68
2023/05/17 00:45:28;;;;;;;2.97;1.47;;;4.20;99.90;;;;;;2061732;28;20707;-68
2023/05/17 00:46:29;;;;;;;5.20;1.67;;;4.20;99.90;;;;;;2055564;28;20241;-68
2023/05/17 00:47:32;;;;;;;6.30;1.70;;;4.20;99.90;;;;;;2060077;28;20927;-68
2023/05/17 00:48:33;;;;;;;3.65;1.38;;;4.30;99.90;;;;;;2053031;28;20237;-68
2023/05/17 00:49:36;;;;;;;4.50;1.50;;;4.30;99.90;;;;;;2046916;28;20235;-68
2023/05/17 00:50:37;;;;;;;4.25;1.60;;;4.30;99.90;;;;;;2055819;28;20792;-68
2023/05/17 00:51:39;;;;;;;3.58;1.73;;;4.30;99.90;;;;;;2063168;28;20290;-68
2023/05/17 00:52:41;;;;;;;2.67;1.60;;;4.40;99.90;;;;;;2051620;28;20238;-67
2023/05/17 00:53:42;;;;;;;2.63;1.30;;;4.30;99.90;;;;;;2058471;28;20236;-69
2023/05/17 00:54:43;;;;;;;3.57;1.60;;;4.40;99.90;;;;;;2064778;28;20236;-68
2023/05/17 00:55:48;;;;;;;4.88;1.65;;;4.30;99.90;;;;;;2064485;28;20290;-68
2023/05/17 00:56:55;;;;;;;4.70;1.70;;;4.30;99.90;;;;;;2066363;28;20703;-66
2023/05/17 00:57:56;;;;;;;2.70;1.63;;;4.30;99.90;;;;;;2056168;28;20545;-67
2023/05/17 00:58:57;;;;;;;5.13;1.60;;;4.40;99.90;;;;;;2061060;28;20213;-66
2023/05/17 00:59:59;;;;;;;4.03;1.73;;;4.30;99.90;;;;;;2069639;28;20794;-67
2023/05/17 01:01:01;;;;;;;4.32;1.80;;;4.40;99.90;;;;;;2066430;28;20649;-67
2023/05/17 01:02:03;;;;;;;1.88;1.58;;;3.80;99.90;;;;;;2057736;28;20267;-67
2023/05/17 01:03:04;;;;;;;3.88;2.00;;;4.30;99.90;;;;;;2050206;28;20282;-66
2023/05/17 01:04:07;;;;;;;2.27;1.93;;;4.30;99.90;;;;;;2059820;28;20695;-67
2023/05/17 01:05:08;;;;;;;3.42;1.52;;;4.30;99.90;;;;;;2063396;28;20471;-67
2023/05/17 01:06:08;;;;;;;2.47;1.73;;;3.40;99.90;;;;;;2060752;28;20250;-67
2023/05/17 01:07:09;;;;;;;4.03;1.77;;;4.30;99.90;;;;;;2056590;28;20573;-67
2023/05/17 01:08:10;;;;;;;3.50;1.80;;;4.20;99.90;;;;;;2063614;28;20252;-67
2023/05/17 01:09:12;;;;;;;2.25;1.73;;;4.30;99.90;;;;;;2051158;28;20463;-67
2023/05/17 01:10:13;;;;;;;3.65;1.65;;;4.30;99.90;;;;;;2060094;28;20597;-67
2023/05/17 01:11:38;;;;;;;5.20;1.63;;;4.30;99.90;;;;;;2056309;28;20318;-67
2023/05/17 01:13:09;;;;;;;3.30;1.60;;;4.40;99.90;;;;;;2056422;28;20301;-67
2023/05/17 01:15:01;;;;;;;5.72;1.90;;;4.40;99.90;;;;;;2048257;28;20237;-67
2023/05/17 01:16:27;;;;;;;4.65;2.05;;;4.40;99.90;;;;;;2055171;28;20635;-67
2023/05/17 01:17:55;;;;;;;5.00;1.88;;;4.40;99.90;;;;;;2051896;28;20266;-67
2023/05/17 01:19:47;;;;;;;2.83;1.60;;;4.50;99.90;;;;;;2057240;28;20271;-67
2023/05/17 01:20:51;;;;;;;6.75;1.88;;;4.50;99.90;;;;;;2051983;28;20687;-67
2023/05/17 01:22:09;;;;;;;3.58;1.60;;;4.50;99.90;;;;;;2041542;29;20221;-66
2023/05/17 01:23:55;;;;;;;3.42;1.60;;;4.50;99.90;;;;;;2043778;28;20238;-67
2023/05/17 01:25:00;;;;;;;6.53;1.70;;;4.50;99.90;;;;;;2064703;28;20773;-67
2023/05/17 01:26:34;;;;;;;4.38;2.00;;;4.40;99.90;;;;;;2059806;28;22054;-69
2023/05/17 01:27:39;;;;;;;4.80;2.03;;;4.50;99.90;;;;;;2055906;28;20229;-68
2023/05/17 01:28:45;;;;;;;2.38;1.67;;;4.40;99.90;;;;;;2059071;28;20695;-67
2023/05/17 01:29:48;;;;;;;4.18;1.95;;;4.40;99.90;;;;;;2052484;28;20712;-69
2023/05/17 01:30:51;;;;;;;3.72;1.40;;;4.40;99.90;;;;;;2060376;28;20186;-67
2023/05/17 01:31:52;;;;;;;4.43;2.03;;;4.30;99.90;;;;;;2054554;28;20186;-67
2023/05/17 01:32:57;;;;;;;7.13;1.70;;;4.30;99.90;;;;;;2041306;28;20210;-68
2023/05/17 01:34:00;;;;;;;6.45;1.95;;;4.30;99.90;;;;;;2049379;28;20240;-67
2023/05/17 01:35:04;;;;;;;4.82;1.88;;;4.30;99.90;;;;;;2057326;28;20198;-67
2023/05/17 01:36:05;;;;;;;2.60;2.13;;;4.40;99.90;;;;;;2069568;28;20303;-67
2023/05/17 01:37:06;;;;;;;3.58;1.65;;;4.30;99.90;;;;;;2069359;28;20316;-67
2023/05/17 01:38:07;;;;;;;2.53;1.40;;;4.30;99.90;;;;;;2062948;28;20229;-67
2023/05/17 01:39:09;;;;;;;3.10;1.70;;;4.30;99.90;;;;;;2066650;28;20733;-68
2023/05/17 01:40:10;;;;;;;5.65;2.00;;;4.30;99.90;;;;;;2062160;28;20250;-67
2023/05/17 01:41:42;;;;;;;5.28;1.75;;;4.20;99.90;;;;;;2064997;28;20236;-65
2023/05/17 01:42:43;;;;;;;3.67;1.70;;;4.20;99.90;;;;;;2055687;28;20588;-68
2023/05/17 01:44:21;;;;;;;3.90;1.60;;;4.10;99.90;;;;;;2041163;28;20191;-68
2023/05/17 01:45:31;;;;;;;2.90;1.80;;;4.10;99.90;;;;;;2061679;28;20246;-69
2023/05/17 01:46:42;;;;;;;3.08;1.80;;;4.00;99.90;;;;;;2049123;28;20238;-68
2023/05/17 01:48:10;;;;;;;3.70;1.98;;;4.10;99.90;;;;;;2045440;28;20716;-67
2023/05/17 01:49:47;;;;;;;3.55;2.22;;;4.00;99.90;;;;;;2062859;28;20241;-67
2023/05/17 01:50:51;;;;;;;5.40;2.28;;;4.00;99.90;;;;;;2053841;28;20712;-67
2023/05/17 01:52:24;;;;;;;5.20;1.77;;;4.10;99.90;;;;;;2064216;28;20189;-67
2023/05/17 01:53:43;;;;;;;7.07;1.60;;;4.10;99.90;;;;;;2059639;28;20278;-67
2023/05/17 01:54:55;;;;;;;2.78;1.73;;;4.00;99.90;;;;;;2049495;28;20253;-68
2023/05/17 01:56:09;;;;;;;4.15;1.70;;;4.00;99.90;;;;;;2056713;28;20202;-67
2023/05/17 01:57:11;;;;;;;4.70;2.25;;;4.00;99.90;;;;;;2052001;28;20241;-67
2023/05/17 01:58:12;;;;;;;4.70;2.00;;;4.10;99.90;;;;;;2060182;28;20791;-67
2023/05/17 01:59:20;;;;;;;6.78;2.03;;;4.00;99.90;;;;;;2060550;28;20288;-67
2023/05/17 02:00:23;;;;;;;4.43;2.10;;;3.90;99.90;;;;;;2060269;28;20881;-67
2023/05/17 02:01:27;;;;;;;3.90;1.92;;;3.90;99.90;;;;;;2066129;28;20268;-66
2023/05/17 02:02:29;;;;;;;5.55;1.70;;;3.90;99.90;;;;;;2055004;28;20330;-67
2023/05/17 02:03:30;;;;;;;3.42;1.70;;;3.90;99.90;;;;;;2053539;28;20218;-67
2023/05/17 02:04:31;;;;;;;2.10;1.90;;;4.00;99.90;;;;;;2054979;28;20660;-67
2023/05/17 02:05:32;;;;;;;2.78;1.80;;;4.00;99.90;;;;;;2061725;28;20665;-68
2023/05/17 02:06:33;;;;;;;3.37;1.73;;;4.00;99.90;;;;;;2062729;28;20232;-67
2023/05/17 02:07:33;;;;;;;3.33;1.60;;;4.00;99.90;;;;;;2059921;28;20237;-68
2023/05/17 02:08:34;;;;;;;5.10;2.13;;;4.10;99.90;;;;;;2051602;28;20296;-68
2023/05/17 02:09:35;;;;;;;2.83;1.70;;;4.10;99.90;;;;;;2060673;28;20688;-68
2023/05/17 02:10:36;;;;;;;3.05;1.88;;;4.10;99.90;;;;;;2059952;28;20264;-68
2023/05/17 02:11:37;;;;;;;3.93;1.80;;;4.00;99.90;;;;;;2058569;28;20229;-68
2023/05/17 02:12:38;;;;;;;4.30;2.00;;;4.00;99.90;;;;;;2051057;28;20793;-68
2023/05/17 02:13:39;;;;;;;6.15;1.90;;;4.00;99.90;;;;;;2061859;28;20826;-68
2023/05/17 02:14:40;;;;;;;3.47;1.80;;;4.10;99.90;;;;;;2058007;28;20237;-68
2023/05/17 02:15:41;;;;;;;3.83;1.67;;;4.10;99.90;;;;;;2052813;28;20739;-68
2023/05/17 02:16:42;;;;;;;3.38;1.80;;;4.10;99.90;;;;;;2056000;28;20310;-69
2023/05/17 02:17:43;;;;;;;4.80;1.70;;;4.10;99.90;;;;;;2061566;28;20193;-70
2023/05/17 02:18:44;;;;;;;9.80;2.10;;;4.10;99.90;;;;;;2064197;28;22812;-68
2023/05/17 02:19:44;;;;;;;4.80;1.60;;;4.10;99.90;;;;;;2062926;28;20189;-68
2023/05/17 02:20:47;;;;;;;7.55;1.70;;;4.10;99.90;;;;;;2057928;28;20195;-68
2023/05/17 02:21:48;;;;;;;3.45;1.95;;;4.00;99.90;;;;;;2068388;28;20186;-68
2023/05/17 02:22:49;;;;;;;4.83;1.70;;;3.90;99.90;;;;;;2050619;28;20249;-68
2023/05/17 02:23:50;;;;;;;4.03;1.90;;;3.90;99.90;;;;;;2052135;28;20194;-68
2023/05/17 02:24:51;;;;;;;3.58;2.72;;;4.00;99.90;;;;;;2068003;28;20653;-68
2023/05/17 02:25:52;;;;;;;3.13;1.80;;;4.00;99.90;;;;;;2060494;28;20187;-67
2023/05/17 02:26:53;;;;;;;5.60;1.90;;;4.00;99.90;;;;;;2059429;28;20576;-68
2023/05/17 02:27:53;;;;;;;6.13;2.00;;;4.00;99.90;;;;;;2052671;28;20194;-68
2023/05/17 02:28:54;;;;;;;4.90;1.90;;;4.00;99.90;;;;;;2052732;28;20801;-68
2023/05/17 02:29:55;;;;;;;6.00;2.30;;;4.00;99.90;;;;;;2060610;28;20199;-68
2023/05/17 02:30:56;;;;;;;2.57;2.10;;;4.00;99.90;;;;;;2063554;28;20193;-68
2023/05/17 02:31:57;;;;;;;2.30;1.60;;;4.00;99.90;;;;;;2063499;28;20739;-65
2023/05/17 02:32:57;;;;;;;5.70;1.77;;;3.90;99.90;;;;;;2056875;28;20205;-70
2023/05/17 02:33:58;;;;;;;6.53;2.00;;;3.90;99.90;;;;;;2060056;28;20212;-68
2023/05/17 02:34:59;;;;;;;2.53;1.67;;;3.90;99.90;;;;;;2068395;28;20188;-69
2023/05/17 02:36:01;;;;;;;3.05;1.80;;;3.90;99.90;;;;;;2046648;29;20227;-69
2023/05/17 02:37:02;;;;;;;4.47;1.60;;;3.90;99.90;;;;;;2045484;28;20304;-68
2023/05/17 02:38:02;;;;;;;4.73;2.27;;;4.00;99.90;;;;;;2053654;28;20317;-69
2023/05/17 02:39:03;;;;;;;5.87;2.13;;;4.00;99.90;;;;;;2047634;28;20290;-68
2023/05/17 02:40:08;;;;;;;3.53;1.90;;;3.90;99.90;;;;;;2045097;28;20665;-67
2023/05/17 02:41:10;;;;;;;3.15;1.80;;;3.90;99.90;;;;;;2047302;28;21051;-69
2023/05/17 02:42:11;;;;;;;5.18;2.10;;;4.00;99.90;;;;;;2045575;28;20230;-68
2023/05/17 02:43:11;;;;;;;5.17;2.40;;;3.90;99.90;;;;;;2054830;28;20287;-69
2023/05/17 02:44:12;;;;;;;3.43;2.03;;;3.90;99.90;;;;;;2060289;28;20234;-69
2023/05/17 02:45:14;;;;;;;4.23;2.00;;;3.90;99.90;;;;;;2063215;28;20224;-68
2023/05/17 02:46:15;;;;;;;2.35;1.90;;;3.90;99.90;;;;;;2059042;28;20285;-68
2023/05/17 02:47:15;;;;;;;4.50;2.20;;;3.80;99.90;;;;;;2047222;28;20333;-68
2023/05/17 02:48:16;;;;;;;5.10;2.90;;;3.80;99.90;;;;;;2058212;28;20233;-69
2023/05/17 02:49:17;;;;;;;3.37;1.90;;;3.80;99.90;;;;;;2052024;28;20253;-68
2023/05/17 02:50:17;;;;;;;3.43;1.67;;;3.90;99.90;;;;;;2047380;28;20271;-71
2023/05/17 02:51:19;;;;;;;5.67;2.30;;;3.90;99.90;;;;;;2045013;28;20295;-68
2023/05/17 02:52:19;;;;;;;2.22;1.55;;;3.80;99.90;;;;;;2054291;28;20242;-68
2023/05/17 02:53:20;;;;;;;6.17;1.93;;;3.90;99.90;;;;;;2052382;28;20787;-69
2023/05/17 02:54:21;;;;;;;2.90;1.97;;;3.90;99.90;;;;;;2055487;28;20245;-69
2023/05/17 02:55:22;;;;;;;5.03;2.10;;;4.00;99.90;;;;;;2059717;28;20333;-68
2023/05/17 02:56:24;;;;;;;7.80;2.13;;;3.90;99.90;;;;;;2058850;28;20231;-68
2023/05/17 02:57:26;;;;;;;3.10;1.90;;;4.00;99.90;;;;;;2056402;28;20324;-69
2023/05/17 02:58:26;;;;;;;6.75;2.45;;;4.00;99.90;;;;;;2055452;28;20325;-69
2023/05/17 02:59:27;;;;;;;9.43;2.50;;;3.90;99.90;;;;;;2056044;28;20281;-68
2023/05/17 03:00:28;;;;;;;2.63;1.70;;;4.00;99.90;;;;;;2056014;28;20704;-68
2023/05/17 03:01:29;;;;;;;5.10;2.13;;;3.90;99.90;;;;;;2056073;28;20233;-68
2023/05/17 03:02:30;;;;;;;4.13;1.88;;;4.00;99.90;;;;;;2056355;28;20238;-68
2023/05/17 03:03:30;;;;;;;3.60;1.90;;;4.00;99.90;;;;;;2058445;28;20301;-68
2023/05/17 03:04:32;;;;;;;3.10;1.90;;;4.00;99.90;;;;;;2056458;28;20229;-69
2023/05/17 03:05:33;;;;;;;6.78;2.00;;;4.00;99.90;;;;;;2054255;28;20226;-69
2023/05/17 03:06:33;;;;;;;2.37;1.77;;;4.00;99.90;;;;;;2062533;28;20314;-68
2023/05/17 03:07:35;;;;;;;4.73;1.90;;;4.00;99.90;;;;;;2059447;28;20248;-68
2023/05/17 03:08:37;;;;;;;3.85;1.90;;;3.90;99.90;;;;;;2052606;28;20784;-68
2023/05/17 03:09:38;;;;;;;5.47;1.80;;;3.90;99.90;;;;;;2059417;28;20290;-68
2023/05/17 03:10:40;;;;;;;5.40;1.90;;;3.90;99.90;;;;;;2053488;28;20619;-69
2023/05/17 03:11:40;;;;;;;3.95;1.92;;;3.90;99.90;;;;;;2051180;28;20230;-69
2023/05/17 03:12:41;;;;;;;3.57;1.80;;;3.90;99.90;;;;;;2057714;28;20718;-69
2023/05/17 03:13:42;;;;;;;4.40;1.80;;;3.90;99.90;;;;;;2061640;28;20229;-70
2023/05/17 03:14:43;;;;;;;3.87;1.70;;;3.90;99.90;;;;;;2061165;28;20691;-70
2023/05/17 03:15:43;;;;;;;8.07;3.40;;;3.90;99.90;;;;;;2058505;28;20198;-69
2023/05/17 03:16:44;;;;;;;6.33;1.70;;;3.90;99.90;;;;;;2047303;28;20199;-68
2023/05/17 03:17:45;;;;;;;3.60;1.80;;;3.90;99.90;;;;;;2047294;28;20191;-69
2023/05/17 03:18:45;;;;;;;7.10;1.80;;;3.80;99.90;;;;;;2055314;28;20713;-69
2023/05/17 03:19:46;;;;;;;3.43;1.80;;;3.90;99.90;;;;;;2059988;28;20199;-68
2023/05/17 03:20:47;;;;;;;4.33;1.90;;;3.90;99.90;;;;;;2051245;28;20179;-68
2023/05/17 03:21:48;;;;;;;3.03;1.70;;;3.80;99.90;;;;;;2047359;28;20709;-69
2023/05/17 03:22:52;;;;;;;3.83;1.60;;;3.70;99.90;;;;;;2058828;28;20222;-69
2023/05/17 03:23:52;;;;;;;2.03;1.80;;;3.60;99.90;;;;;;2053099;28;20202;-68
2023/05/17 03:24:53;;;;;;;4.87;2.30;;;3.60;99.90;;;;;;2046667;28;20700;-68
2023/05/17 03:25:54;;;;;;;7.90;2.33;;;3.60;99.90;;;;;;2054816;28;20667;-68
2023/05/17 03:26:55;;;;;;;2.63;1.80;;;3.60;99.90;;;;;;2055673;28;20198;-68
2023/05/17 03:27:56;;;;;;;4.00;1.80;;;3.60;99.90;;;;;;2058585;28;20811;-69
2023/05/17 03:28:57;;;;;;;4.57;1.80;;;3.60;99.90;;;;;;2050781;28;20301;-68
2023/05/17 03:29:57;;;;;;;4.15;1.92;;;3.60;99.90;;;;;;2056811;28;20237;-68
2023/05/17 03:30:58;;;;;;;2.77;2.17;;;3.60;99.90;;;;;;2059109;28;20186;-69
2023/05/17 03:31:59;;;;;;;2.77;1.80;;;3.50;99.90;;;;;;2067489;28;20258;-68
2023/05/17 03:33:00;;;;;;;2.20;1.97;;;3.40;99.90;;;;;;2069376;28;20212;-68
2023/05/17 03:34:00;;;;;;;4.73;2.27;;;3.30;99.90;;;;;;2070474;28;20282;-68
2023/05/17 03:35:02;;;;;;;5.13;1.73;;;3.30;99.90;;;;;;2067846;28;20458;-68
2023/05/17 03:36:03;;;;;;;4.63;1.85;;;3.30;99.90;;;;;;2070009;28;20310;-68
2023/05/17 03:37:04;;;;;;;5.07;2.10;;;3.30;99.90;;;;;;2059053;28;20235;-68
2023/05/17 03:38:05;;;;;;;5.15;1.92;;;3.30;99.90;;;;;;2059293;28;20261;-68
2023/05/17 03:39:06;;;;;;;3.67;2.20;;;3.30;99.90;;;;;;2060942;28;20724;-68
2023/05/17 03:40:08;;;;;;;2.95;1.92;;;3.30;99.90;;;;;;2063926;28;20764;-69
2023/05/17 03:41:09;;;;;;;4.60;2.05;;;3.20;99.90;;;;;;2045434;28;20230;-68
2023/05/17 03:42:10;;;;;;;4.15;2.13;;;3.30;99.90;;;;;;2054959;28;20323;-68
2023/05/17 03:43:11;;;;;;;4.53;2.15;;;3.30;99.90;;;;;;2059132;28;20246;-70
2023/05/17 03:44:12;;;;;;;3.23;2.10;;;3.30;99.90;;;;;;2063644;28;20799;-68
2023/05/17 03:45:14;;;;;;;4.47;1.60;;;3.30;99.90;;;;;;2061168;28;20244;-69
2023/05/17 03:46:15;;;;;;;3.50;2.00;;;3.20;99.90;;;;;;2055682;28;20320;-68
2023/05/17 03:47:16;;;;;;;2.97;1.80;;;3.20;99.90;;;;;;2062909;28;20236;-68
2023/05/17 03:48:16;;;;;;;3.22;2.10;;;3.30;99.90;;;;;;2062165;28;20697;-69
2023/05/17 03:49:17;;;;;;;11.10;2.60;;;3.20;99.90;;;;;;2060022;28;20244;-68
2023/05/17 03:50:18;;;;;;;2.97;1.80;;;3.20;99.90;;;;;;2056947;28;20680;-68
2023/05/17 03:51:19;;;;;;;2.90;2.00;;;3.30;99.90;;;;;;2053827;28;20256;-69
2023/05/17 03:52:19;;;;;;;1.93;1.60;;;3.30;99.90;;;;;;2055015;28;20349;-68
2023/05/17 03:53:21;;;;;;;4.60;2.20;;;3.30;99.90;;;;;;2057409;28;20726;-68
2023/05/17 03:54:21;;;;;;;6.30;2.10;;;3.20;99.90;;;;;;2054543;28;20243;-68
2023/05/17 03:55:22;;;;;;;9.60;2.57;;;3.20;99.90;;;;;;2039066;28;20314;-68
2023/05/17 03:56:23;;;;;;;3.15;2.00;;;3.10;99.90;;;;;;2052837;28;20673;-68
2023/05/17 03:57:24;;;;;;;3.50;1.90;;;3.10;99.90;;;;;;2061736;28;20231;-68
2023/05/17 03:58:24;;;;;;;6.13;1.87;;;3.10;99.90;;;;;;2060968;28;20729;-68
2023/05/17 03:59:25;;;;;;;5.50;1.97;;;3.10;99.90;;;;;;2053819;28;20260;-68
2023/05/17 04:00:26;;;;;;;4.10;2.03;;;3.10;99.90;;;;;;2060160;28;20679;-70
2023/05/17 04:01:27;;;;;;;4.32;1.95;;;3.10;99.90;;;;;;2061851;28;20234;-68
2023/05/17 04:02:28;;;;;;;4.90;2.17;;;3.10;99.90;;;;;;2059726;28;20283;-69
2023/05/17 04:03:30;;;;;;;5.60;2.33;;;3.10;99.90;;;;;;2052141;28;20250;-69
2023/05/17 04:04:31;;;;;;;3.35;2.17;;;3.10;99.90;;;;;;2054924;28;20688;-68
2023/05/17 04:05:32;;;;;;;3.63;2.07;;;3.00;99.90;;;;;;2062725;28;20242;-68
2023/05/17 04:06:33;;;;;;;4.23;2.10;;;3.10;99.90;;;;;;2055106;28;20235;-69
2023/05/17 04:07:34;;;;;;;3.77;2.00;;;3.00;99.90;;;;;;2048529;28;20237;-69
2023/05/17 04:08:35;;;;;;;2.65;2.00;;;3.00;99.90;;;;;;2055727;28;20307;-68
2023/05/17 04:09:35;;;;;;;3.07;1.80;;;3.10;99.90;;;;;;2052152;28;20238;-69
2023/05/17 04:10:40;;;;;;;7.77;3.03;;;3.20;99.90;;;;;;2055340;28;20479;-68
2023/05/17 04:11:42;;;;;;;6.55;2.08;;;3.10;99.90;;;;;;2057570;28;20326;-68
2023/05/17 04:12:44;;;;;;;3.30;2.10;;;3.00;99.90;;;;;;2059765;28;20231;-69
2023/05/17 04:13:44;;;;;;;5.53;2.00;;;3.00;99.90;;;;;;2050372;28;20198;-68
2023/05/17 04:14:45;;;;;;;5.33;1.83;;;3.10;99.90;;;;;;2050227;28;20692;-69
2023/05/17 04:15:46;;;;;;;4.77;2.10;;;3.10;99.90;;;;;;2049847;28;20186;-68
2023/05/17 04:16:47;;;;;;;6.07;2.80;;;3.10;99.90;;;;;;2063190;28;20626;-68
2023/05/17 04:17:48;;;;;;;4.10;2.03;;;3.10;99.90;;;;;;2066685;28;20236;-68
2023/05/17 04:18:51;;;;;;;3.97;2.20;;;3.10;99.90;;;;;;2053361;28;20212;-69
2023/05/17 04:19:52;;;;;;;2.95;1.92;;;3.00;99.90;;;;;;2060257;28;20185;-68
2023/05/17 04:20:55;;;;;;;3.57;2.00;;;3.00;99.90;;;;;;2060106;28;20674;-69
2023/05/17 04:21:56;;;;;;;7.55;2.17;;;3.10;99.90;;;;;;2050125;28;20173;-69
2023/05/17 04:22:56;;;;;;;3.43;2.13;;;3.10;99.90;;;;;;2047239;28;20197;-68
2023/05/17 04:23:57;;;;;;;5.27;2.67;;;3.10;99.90;;;;;;2061057;28;20268;-69
2023/05/17 04:24:58;;;;;;;4.43;1.83;;;3.10;99.90;;;;;;2054433;28;20273;-69
2023/05/17 04:25:59;;;;;;;5.32;1.88;;;3.10;99.90;;;;;;2063108;28;20192;-69
2023/05/17 04:27:03;;;;;;;4.97;2.28;;;3.20;99.90;;;;;;2061601;28;20180;-68
2023/05/17 04:28:04;;;;;;;7.72;2.55;;;3.20;99.90;;;;;;2049990;28;20228;-68
2023/05/17 04:29:05;;;;;;;4.53;2.05;;;3.10;99.90;;;;;;2060083;28;20258;-68
2023/05/17 04:30:08;;;;;;;5.05;2.35;;;3.10;99.90;;;;;;2061280;28;20576;-68
2023/05/17 04:31:09;;;;;;;3.28;2.05;;;3.20;99.90;;;;;;2053900;28;20332;-69
2023/05/17 04:32:10;;;;;;;3.20;1.70;;;3.20;99.90;;;;;;2045360;28;20234;-67
2023/05/17 04:33:10;;;;;;;1.87;1.70;;;3.20;99.90;;;;;;2047177;28;20233;-67
2023/05/17 04:34:11;;;;;;;5.23;1.77;;;3.20;99.90;;;;;;2054713;28;20276;-67
2023/05/17 04:35:14;;;;;;;5.30;2.40;;;3.30;99.90;;;;;;2055700;28;20605;-67
2023/05/17 04:36:14;;;;;;;4.32;2.42;;;3.20;99.90;;;;;;2061342;28;20237;-67
2023/05/17 04:37:15;;;;;;;6.40;1.90;;;3.20;99.90;;;;;;2055938;28;20237;-67
2023/05/17 04:38:16;;;;;;;3.08;2.00;;;3.30;99.90;;;;;;2061957;28;21278;-68
2023/05/17 04:39:17;;;;;;;3.10;2.07;;;3.30;99.90;;;;;;2064604;28;20228;-67
2023/05/17 04:40:18;;;;;;;3.23;2.00;;;3.40;99.90;;;;;;2055328;28;20245;-67
2023/05/17 04:41:19;;;;;;;4.80;2.40;;;3.40;99.90;;;;;;2068940;28;20296;-68
2023/05/17 04:42:20;;;;;;;5.17;2.40;;;3.30;99.90;;;;;;2065819;28;20236;-68
2023/05/17 04:43:20;;;;;;;5.20;2.25;;;3.40;99.90;;;;;;2069866;28;20558;-67
2023/05/17 04:44:21;;;;;;;2.67;2.00;;;3.40;99.90;;;;;;2061398;28;20261;-67
2023/05/17 04:45:22;;;;;;;6.37;2.37;;;3.30;99.90;;;;;;2061097;28;20228;-68
2023/05/17 04:46:23;;;;;;;6.73;2.33;;;3.40;99.90;;;;;;2071561;28;20232;-67
2023/05/17 04:47:23;;;;;;;3.30;2.10;;;3.40;99.90;;;;;;2076372;28;20753;-67
2023/05/17 04:48:26;;;;;;;4.17;1.70;;;3.40;99.90;;;;;;2064485;28;20239;-67
2023/05/17 04:49:27;;;;;;;5.15;2.00;;;3.40;99.90;;;;;;2058510;28;20230;-68
2023/05/17 04:50:28;;;;;;;8.43;2.30;;;3.40;99.90;;;;;;2057735;28;20687;-68
2023/05/17 04:51:29;;;;;;;10.68;3.10;;;3.40;99.90;;;;;;2057111;28;20692;-68
2023/05/17 04:52:31;;;;;;;4.47;2.33;;;3.40;99.90;;;;;;2062620;28;20229;-68
2023/05/17 04:53:32;;;;;;;5.63;2.40;;;3.40;99.90;;;;;;2064302;28;20232;-67
2023/05/17 04:54:33;;;;;;;5.93;2.47;;;3.40;99.90;;;;;;2070702;28;20240;-68
2023/05/17 04:55:34;;;;;;;5.70;2.57;;;3.40;99.90;;;;;;2067843;28;20660;-68
2023/05/17 04:56:35;;;;;;;3.42;2.38;;;3.40;99.90;;;;;;2060538;28;20240;-68
2023/05/17 04:57:36;;;;;;;4.53;2.50;;;3.40;99.90;;;;;;2053548;28;20233;-68
2023/05/17 04:58:37;;;;;;;6.00;2.00;;;3.40;99.90;;;;;;2048794;28;20316;-68
2023/05/17 04:59:39;;;;;;;5.35;2.40;;;3.40;99.90;;;;;;2048909;28;20472;-68
2023/05/17 05:00:40;;;;;;;6.38;2.70;;;3.50;99.90;;;;;;2050950;28;20242;-68
2023/05/17 05:01:41;;;;;;;7.23;2.63;;;3.50;99.90;;;;;;2055009;28;20809;-68
2023/05/17 05:02:42;;;;;;;5.30;2.50;;;3.60;99.90;;;;;;2039312;28;20230;-68
2023/05/17 05:03:44;;;;;;;3.37;2.50;;;3.60;99.90;;;;;;2040303;28;20200;-70
2023/05/17 05:04:45;;;;;;;5.88;2.03;;;3.60;99.90;;;;;;2064485;28;20592;-68
2023/05/17 05:05:46;;;;;;;3.67;2.28;;;3.60;99.90;;;;;;2067495;28;20681;-68
2023/05/17 05:06:47;;;;;;;3.30;2.20;;;3.70;99.90;;;;;;2056144;28;20189;-68
2023/05/17 05:07:48;;;;;;;5.37;2.20;;;3.70;99.90;;;;;;2048539;28;20648;-67
2023/05/17 05:08:48;;;;;;;4.57;2.22;;;3.70;99.90;;;;;;2044161;28;20779;-68
2023/05/17 05:09:49;;;;;;;9.47;2.63;;;3.70;99.90;;;;;;2053579;28;20191;-68
2023/05/17 05:10:50;;;;;;;11.53;2.53;;;3.70;99.90;;;;;;2057420;28;20534;-68
2023/05/17 05:11:51;;;;;;;2.70;1.90;;;3.80;99.90;;;;;;2060260;28;20194;-68
2023/05/17 05:12:52;;;;;;;5.77;2.17;;;3.80;99.90;;;;;;2056379;28;20268;-68
2023/05/17 05:13:52;;;;;;;4.73;2.00;;;3.80;99.90;;;;;;2048568;28;20286;-68
2023/05/17 05:14:53;;;;;;;3.87;1.80;;;3.90;99.90;;;;;;2059093;28;20202;-68
2023/05/17 05:15:54;;;;;;;4.80;2.33;;;4.00;99.90;;;;;;2056068;28;20186;-68
2023/05/17 05:16:55;;;;;;;5.33;2.33;;;4.10;99.90;;;;;;2055396;28;20179;-68
2023/05/17 05:17:56;;;;;;;4.63;2.20;;;4.10;99.90;;;;;;2050136;28;20207;-68
2023/05/17 05:18:56;;;;;;;8.83;2.33;;;4.10;99.90;;;;;;2061971;28;20193;-68
2023/05/17 05:19:57;;;;;;;2.83;2.00;;;4.10;99.90;;;;;;2052229;28;20179;-68
2023/05/17 05:20:58;;;;;;;3.00;1.90;;;4.10;99.90;;;;;;2051456;28;20233;-68
2023/05/17 05:21:59;;;;;;;3.27;2.20;;;4.10;99.90;;;;;;2044531;28;20179;-68
2023/05/17 05:23:02;;;;;;;8.57;2.60;;;4.00;99.90;;;;;;2047796;28;20214;-68
2023/05/17 05:24:03;;;;;;;3.05;1.88;;;4.00;99.90;;;;;;2055138;28;20229;-68
2023/05/17 05:25:04;;;;;;;2.47;1.60;;;4.10;99.90;;;;;;2054003;28;20659;-67
2023/05/17 05:26:05;;;;;;;4.07;2.00;;;4.10;99.90;;;;;;2056091;28;20810;-68
2023/05/17 05:27:06;;;;;;;3.40;1.63;;;4.20;99.90;;;;;;2057598;28;20261;-68
2023/05/17 05:28:06;;;;;;;1.67;1.50;;;4.20;99.90;;;;;;2057336;28;20238;-68
2023/05/17 05:29:07;;;;;;;2.77;1.97;;;4.30;99.90;;;;;;2055300;28;20242;-68
2023/05/17 05:30:09;;;;;;;10.03;2.20;;;4.50;99.90;;;;;;2059896;28;20232;-68
2023/05/17 05:31:09;;;;;;;3.95;2.00;;;4.50;99.90;;;;;;2055624;28;20235;-68
2023/05/17 05:32:10;;;;;;;3.57;1.90;;;4.40;99.90;;;;;;2046929;28;20310;-68